Time;durP1;ratioP1;P1;durP2;ratioP2;P2;SDS_P1;SDS_P2;PMS_P1;PMS_P2;Temp;Humidity;BMP_temperature;BMP_pressure;BME280_temperature;BME280_humidity;BME280_pressure;Samples;Min_cycle;Max_cycle;Signal;HPM_P1;HPM_P2
2021/05/23 00:00:24;;;;;;;1.40;1.30;;;;;;;12.32;61.92;100351.91;688197;28;1895;-65
2021/05/23 00:00:45;;;;;;;1.40;1.20;;;;;;;12.34;61.90;100359.84;685960;28;90787;-65
2021/05/23 00:01:07;;;;;;;1.27;1.20;;;;;;;12.35;61.65;100354.22;687356;28;45250;-66
2021/05/23 00:01:28;;;;;;;2.00;1.35;;;;;;;12.33;62.16;100358.97;688695;28;22432;-66
2021/05/23 00:01:50;;;;;;;1.58;1.48;;;;;;;12.31;62.33;100354.81;687033;28;43398;-64
2021/05/23 00:02:11;;;;;;;1.70;1.30;;;;;;;12.32;61.85;100356.47;688587;28;46338;-65
2021/05/23 00:02:32;;;;;;;1.23;1.20;;;;;;;12.31;62.06;100360.25;692863;28;46250;-65
2021/05/23 00:02:54;;;;;;;1.38;1.20;;;;;;;12.28;62.03;100355.22;693619;28;21546;-65
2021/05/23 00:03:16;;;;;;;1.50;1.40;;;;;;;12.27;62.10;100367.91;692871;28;44424;-66
2021/05/23 00:03:38;;;;;;;1.40;1.30;;;;;;;12.28;62.46;100353.34;693770;28;29615;-65
2021/05/23 00:03:59;;;;;;;1.40;1.30;;;;;;;12.26;61.93;100360.84;696418;28;22444;-65
2021/05/23 00:04:20;;;;;;;1.27;1.27;;;;;;;12.29;62.06;100367.69;693675;28;17625;-66
2021/05/23 00:04:41;;;;;;;1.10;1.10;;;;;;;12.26;62.05;100358.94;693545;28;23421;-64
2021/05/23 00:05:04;;;;;;;1.25;1.20;;;;;;;12.26;62.26;100356.25;692894;28;46298;-67
2021/05/23 00:05:28;;;;;;;1.23;1.13;;;;;;;12.31;62.47;100361.06;694030;28;1485;-65
2021/05/23 00:05:50;;;;;;;1.42;1.33;;;;;;;12.29;62.33;100359.56;693629;28;15946;-65
2021/05/23 00:06:11;;;;;;;1.40;1.40;;;;;;;12.28;62.04;100360.63;695275;28;12617;-66
2021/05/23 00:06:32;;;;;;;1.30;1.20;;;;;;;12.27;62.28;100362.47;695689;28;46522;-66
2021/05/23 00:06:53;;;;;;;1.48;1.40;;;;;;;12.25;62.21;100362.69;696820;28;17867;-65
2021/05/23 00:07:16;;;;;;;1.40;1.30;;;;;;;12.24;62.72;100361.03;696356;28;20902;-66
2021/05/23 00:07:38;;;;;;;2.20;1.30;;;;;;;12.23;62.81;100362.03;696109;28;38466;-65
2021/05/23 00:08:04;;;;;;;1.50;1.30;;;;;;;12.23;62.65;100367.47;695920;28;45240;-65
2021/05/23 00:08:26;;;;;;;1.60;1.40;;;;;;;12.23;62.50;100362.03;692802;28;138213;-65
2021/05/23 00:08:47;;;;;;;1.27;1.27;;;;;;;12.23;62.44;100362.03;695214;28;44171;-65
2021/05/23 00:09:08;;;;;;;1.45;1.40;;;;;;;12.23;62.46;100367.47;697010;28;16263;-65
2021/05/23 00:09:29;;;;;;;1.67;1.58;;;;;;;12.22;62.73;100368.50;695774;28;9823;-66
2021/05/23 00:09:52;;;;;;;1.77;1.50;;;;;;;12.23;63.00;100363.94;696580;28;23484;-65
2021/05/23 00:10:15;;;;;;;2.38;1.60;;;;;;;12.21;62.57;100366.84;693944;28;91940;-65
2021/05/23 00:10:38;;;;;;;2.30;1.40;;;;;;;12.20;62.99;100367.84;695517;28;45294;-66
2021/05/23 00:11:01;;;;;;;1.60;1.30;;;;;;;12.19;62.83;100359.94;693318;28;69248;-65
2021/05/23 00:11:22;;;;;;;3.50;1.50;;;;;;;12.18;63.32;100358.28;693129;28;68365;-66
2021/05/23 00:11:43;;;;;;;2.03;1.45;;;;;;;12.18;63.32;100360.97;694601;28;22542;-65
2021/05/23 00:12:07;;;;;;;3.75;1.40;;;;;;;12.16;63.14;100357.63;694657;28;21676;-65
2021/05/23 00:12:28;;;;;;;1.70;1.45;;;;;;;12.18;62.93;100361.81;691947;28;92601;-65
2021/05/23 00:12:49;;;;;;;2.30;1.50;;;;;;;12.16;63.08;100357.63;695306;28;22400;-65
2021/05/23 00:13:12;;;;;;;2.85;1.50;;;;;;;12.17;63.30;100362.84;692145;28;21478;-65
2021/05/23 00:13:35;;;;;;;3.15;1.80;;;;;;;12.18;62.94;100360.97;692432;28;64501;-66
2021/05/23 00:13:56;;;;;;;2.10;1.50;;;;;;;12.18;63.03;100366.41;692706;28;40862;-66
2021/05/23 00:14:18;;;;;;;1.30;1.30;;;;;;;12.18;63.20;100364.53;693948;28;23460;-64
2021/05/23 00:14:40;;;;;;;1.30;1.30;;;;;;;12.20;62.97;100367.03;692975;28;46249;-65
2021/05/23 00:15:04;;;;;;;1.33;1.33;;;;;;;12.20;62.91;100369.75;694436;28;36628;-64
2021/05/23 00:15:27;;;;;;;1.77;1.60;;;;;;;12.19;63.31;100365.34;693961;28;93322;-65
2021/05/23 00:15:52;;;;;;;1.48;1.38;;;;;;;12.19;62.80;100370.75;694528;28;90282;-65
2021/05/23 00:16:16;;;;;;;1.80;1.23;;;;;;;12.19;63.23;100366.16;696334;28;38157;-66
2021/05/23 00:16:37;;;;;;;2.25;1.40;;;;;;;12.18;63.02;100369.94;695270;28;69610;-65
2021/05/23 00:16:59;;;;;;;1.35;1.35;;;;;;;12.19;62.92;100371.59;696496;28;23688;-65
2021/05/23 00:17:20;;;;;;;1.60;1.50;;;;;;;12.19;63.17;100368.88;694117;28;15792;-65
2021/05/23 00:17:41;;;;;;;1.65;1.55;;;;;;;12.20;62.87;100367.03;693857;28;21696;-65
2021/05/23 00:18:03;;;;;;;1.48;1.35;;;;;;;12.21;63.26;100369.53;694135;28;17597;-66
2021/05/23 00:18:25;;;;;;;2.35;1.35;;;;;;;12.22;63.07;100368.50;693847;28;24701;-64
2021/05/23 00:18:48;;;;;;;2.70;1.52;;;;;;;12.20;62.87;100370.56;692391;28;44553;-64
2021/05/23 00:19:10;;;;;;;1.50;1.40;;;;;;;12.20;63.22;100369.75;693340;28;62954;-64
2021/05/23 00:19:31;;;;;;;2.30;1.42;;;;;;;12.19;63.29;100374.28;695704;28;45426;-66
2021/05/23 00:19:52;;;;;;;1.52;1.42;;;;;;;12.17;63.00;100368.25;696814;28;18045;-64
2021/05/23 00:20:14;;;;;;;1.60;1.50;;;;;;;12.19;63.32;100368.88;696951;28;18038;-65
2021/05/23 00:20:36;;;;;;;2.00;1.40;;;;;;;12.16;62.91;100373.84;694648;28;46399;-65
2021/05/23 00:20:58;;;;;;;1.75;1.50;;;;;;;12.19;63.07;100379.72;696761;28;20407;-65
2021/05/23 00:21:21;;;;;;;1.98;1.60;;;;;;;12.18;63.20;100378.06;696224;28;46341;-65
2021/05/23 00:21:42;;;;;;;1.52;1.45;;;;;;;12.17;63.34;100370.97;694730;28;69408;-65
2021/05/23 00:22:04;;;;;;;2.40;1.33;;;;;;;12.15;63.53;100370.31;696399;28;20895;-63
2021/05/23 00:22:25;;;;;;;2.38;1.60;;;;;;;12.14;63.17;100374.06;696970;28;22409;-63
2021/05/23 00:22:46;;;;;;;3.15;1.60;;;;;;;12.13;63.55;100374.25;695906;28;45257;-63
2021/05/23 00:23:09;;;;;;;1.58;1.40;;;;;;;12.11;63.66;100371.75;696874;28;18012;-65
2021/05/23 00:23:37;;;;;;;1.30;1.30;;;;;;;12.10;63.84;100367.38;695605;28;61956;-65
2021/05/23 00:23:59;;;;;;;1.77;1.67;;;;;;;12.12;63.40;100381.53;697244;28;971;-64
2021/05/23 00:24:21;;;;;;;1.50;1.50;;;;;;;12.10;63.64;100372.78;697682;28;1210;-66
2021/05/23 00:24:42;;;;;;;1.80;1.50;;;;;;;12.10;63.45;100377.34;695836;28;22393;-63
2021/05/23 00:25:05;;;;;;;1.73;1.60;;;;;;;12.09;63.14;100371.09;695802;28;44286;-66
2021/05/23 00:25:28;;;;;;;1.73;1.58;;;;;;;12.09;63.38;100381.94;695440;28;46324;-66
2021/05/23 00:25:51;;;;;;;2.10;1.50;;;;;;;12.10;63.46;100380.06;695118;28;69445;-65
2021/05/23 00:26:13;;;;;;;3.13;1.50;;;;;;;12.09;63.56;100376.53;696665;28;22635;-65
2021/05/23 00:26:34;;;;;;;3.67;1.55;;;;;;;12.05;63.56;100378.78;695741;28;40801;-65
2021/05/23 00:26:55;;;;;;;2.33;1.55;;;;;;;12.08;63.17;100375.69;693599;28;19245;-67
2021/05/23 00:27:17;;;;;;;1.50;1.40;;;;;;;12.09;63.08;100384.66;692570;28;40795;-65
2021/05/23 00:27:38;;;;;;;1.50;1.40;;;;;;;12.08;63.15;100377.53;689012;28;45381;-65
2021/05/23 00:27:59;;;;;;;1.60;1.50;;;;;;;12.08;63.28;100386.53;689640;28;23459;-65
2021/05/23 00:28:20;;;;;;;1.60;1.50;;;;;;;12.09;63.01;100373.81;689740;28;22381;-64
2021/05/23 00:28:42;;;;;;;1.60;1.50;;;;;;;12.10;63.47;100380.06;689421;28;23407;-65
2021/05/23 00:29:03;;;;;;;2.75;1.70;;;;;;;12.10;63.42;100380.06;693226;28;41294;-65
2021/05/23 00:29:24;;;;;;;2.00;1.60;;;;;;;12.08;63.07;100380.25;693433;28;21482;-64
2021/05/23 00:29:45;;;;;;;1.77;1.67;;;;;;;12.09;63.34;100376.53;696849;28;21443;-65
2021/05/23 00:30:08;;;;;;;1.63;1.52;;;;;;;12.10;63.03;100377.34;696578;28;23397;-65
2021/05/23 00:30:29;;;;;;;1.55;1.45;;;;;;;12.10;63.21;100386.34;697109;28;5178;-63
2021/05/23 00:30:51;;;;;;;1.60;1.50;;;;;;;12.10;62.90;100380.06;696346;28;34503;-65
2021/05/23 00:31:12;;;;;;;1.67;1.50;;;;;;;12.10;63.31;100383.63;696952;28;21562;-65
2021/05/23 00:31:33;;;;;;;3.47;1.83;;;;;;;12.08;63.38;100381.09;696324;28;22244;-66
2021/05/23 00:31:54;;;;;;;2.38;1.80;;;;;;;12.08;62.93;100385.66;696908;28;17414;-65
2021/05/23 00:32:17;;;;;;;2.63;1.88;;;;;;;12.07;63.27;100390.25;696126;28;22355;-65
2021/05/23 00:32:38;;;;;;;2.53;1.88;;;;;;;12.10;63.07;100385.47;695928;28;44177;-65
2021/05/23 00:32:59;;;;;;;2.42;1.60;;;;;;;12.08;62.84;100378.41;696684;28;22185;-65
2021/05/23 00:33:21;;;;;;;1.70;1.60;;;;;;;12.08;63.21;100383.81;697346;28;5196;-65
2021/05/23 00:33:42;;;;;;;1.70;1.60;;;;;;;12.07;62.67;100382.13;694326;28;46348;-65
2021/05/23 00:34:03;;;;;;;2.00;1.70;;;;;;;12.07;62.94;100379.44;696777;28;21564;-66
2021/05/23 00:34:24;;;;;;;1.70;1.50;;;;;;;12.07;62.71;100381.31;696025;28;46395;-64
2021/05/23 00:34:45;;;;;;;1.65;1.55;;;;;;;12.07;63.20;100382.13;695262;28;46297;-65
2021/05/23 00:35:08;;;;;;;2.33;1.45;;;;;;;12.06;63.13;100383.16;696774;28;22543;-64
2021/05/23 00:35:29;;;;;;;1.80;1.70;;;;;;;12.05;63.30;100383.34;695850;28;34828;-65
2021/05/23 00:35:50;;;;;;;1.77;1.67;;;;;;;12.04;63.08;100376.28;696552;28;23544;-65
2021/05/23 00:36:11;;;;;;;1.70;1.60;;;;;;;12.03;62.82;100380.00;696115;28;46302;-65
2021/05/23 00:36:33;;;;;;;1.90;1.80;;;;;;;12.02;63.23;100381.88;696780;28;23459;-65
2021/05/23 00:36:54;;;;;;;1.90;1.80;;;;;;;12.03;63.10;100377.31;693395;28;22425;-64
2021/05/23 00:37:16;;;;;;;1.90;1.80;;;;;;;12.04;63.16;100384.41;694236;28;1878;-64
2021/05/23 00:37:37;;;;;;;2.25;1.70;;;;;;;12.04;63.08;100377.09;694132;28;19680;-64
2021/05/23 00:38:02;;;;;;;1.85;1.75;;;;;;;12.03;62.91;100378.13;694514;28;14963;-66
2021/05/23 00:38:23;;;;;;;2.55;1.60;;;;;;;12.04;63.12;100376.28;693501;28;31431;-65
2021/05/23 00:38:45;;;;;;;1.88;1.70;;;;;;;12.03;63.04;100380.00;694060;28;23453;-65
2021/05/23 00:39:06;;;;;;;1.75;1.60;;;;;;;12.03;63.20;100380.00;695993;28;44376;-65
2021/05/23 00:39:27;;;;;;;1.70;1.60;;;;;;;12.01;62.84;100382.91;696235;28;23522;-66
2021/05/23 00:39:49;;;;;;;1.95;1.60;;;;;;;12.01;62.84;100374.78;696680;28;22620;-65
2021/05/23 00:40:10;;;;;;;2.22;1.50;;;;;;;12.01;63.19;100376.66;696767;28;14375;-64
2021/05/23 00:40:32;;;;;;;1.75;1.65;;;;;;;12.01;62.84;100379.38;696517;28;22408;-66
2021/05/23 00:40:53;;;;;;;2.15;1.80;;;;;;;12.01;62.95;100374.78;697465;28;924;-64
2021/05/23 00:41:15;;;;;;;2.25;1.80;;;;;;;12.01;62.87;100379.38;696984;28;14959;-65
2021/05/23 00:41:36;;;;;;;1.90;1.80;;;;;;;12.01;63.22;100374.78;692207;28;46591;-65
2021/05/23 00:41:57;;;;;;;1.90;1.80;;;;;;;12.01;62.91;100379.38;693608;28;23684;-65
2021/05/23 00:42:19;;;;;;;1.70;1.60;;;;;;;12.01;63.15;100382.91;693158;28;22191;-65
2021/05/23 00:42:40;;;;;;;2.53;1.63;;;;;;;12.01;62.88;100376.66;692707;28;46363;-63
2021/05/23 00:43:02;;;;;;;2.90;1.80;;;;;;;12.02;62.85;100381.03;693848;28;20133;-64
2021/05/23 00:43:23;;;;;;;1.75;1.65;;;;;;;12.02;62.61;100373.78;693741;28;47231;-65
2021/05/23 00:43:45;;;;;;;2.03;1.85;;;;;;;12.02;62.84;100379.19;696015;28;21576;-64
2021/05/23 00:44:06;;;;;;;2.25;2.03;;;;;;;12.02;62.97;100376.47;694330;28;46357;-64
2021/05/23 00:44:27;;;;;;;2.80;1.63;;;;;;;12.03;63.08;100380.00;695457;28;23421;-65
2021/05/23 00:44:48;;;;;;;2.10;1.80;;;;;;;12.02;62.56;100375.63;695319;28;22408;-64
2021/05/23 00:45:13;;;;;;;1.92;1.77;;;;;;;11.98;62.57;100375.19;695565;28;18072;-65
2021/05/23 00:45:34;;;;;;;2.20;1.80;;;;;;;11.98;62.85;100374.34;693526;28;116705;-64
2021/05/23 00:45:56;;;;;;;1.73;1.63;;;;;;;11.99;62.84;100376.88;696842;28;22422;-65
2021/05/23 00:46:17;;;;;;;1.77;1.67;;;;;;;11.99;63.07;100373.31;696061;28;44076;-65
2021/05/23 00:46:38;;;;;;;1.95;1.58;;;;;;;11.97;62.67;100381.63;695897;28;46415;-65
2021/05/23 00:46:59;;;;;;;1.73;1.63;;;;;;;11.98;62.60;100374.34;696965;28;15804;-67
2021/05/23 00:47:20;;;;;;;1.92;1.80;;;;;;;11.97;63.05;100376.19;697441;28;913;-64
2021/05/23 00:47:42;;;;;;;1.60;1.50;;;;;;;11.97;63.01;100375.38;696701;28;22593;-66
2021/05/23 00:48:06;;;;;;;2.00;1.90;;;;;;;11.97;62.86;100378.09;696778;28;15011;-64
2021/05/23 00:48:27;;;;;;;2.15;2.05;;;;;;;11.98;62.65;100379.75;696141;28;39809;-65
2021/05/23 00:48:48;;;;;;;1.70;1.60;;;;;;;11.97;62.61;100378.09;696210;28;22478;-65
2021/05/23 00:49:09;;;;;;;2.38;1.88;;;;;;;11.95;62.72;100370.16;697125;28;10917;-65
2021/05/23 00:49:31;;;;;;;3.28;2.08;;;;;;;11.96;63.08;100379.09;695390;28;23489;-64
2021/05/23 00:49:52;;;;;;;2.55;1.98;;;;;;;11.95;62.89;100378.28;696757;28;22497;-65
2021/05/23 00:50:17;;;;;;;1.88;1.70;;;;;;;11.95;62.96;100374.75;696935;28;12635;-65
2021/05/23 00:50:38;;;;;;;2.05;1.83;;;;;;;11.93;62.73;100380.34;692987;28;129010;-64
2021/05/23 00:51:00;;;;;;;2.20;2.00;;;;;;;11.92;62.81;100378.66;696905;28;1386;-66
2021/05/23 00:51:23;;;;;;;2.15;1.95;;;;;;;11.91;63.08;100379.66;697750;28;1611;-64
2021/05/23 00:51:45;;;;;;;1.77;1.65;;;;;;;11.91;63.25;100376.94;697314;28;4078;-65
2021/05/23 00:52:06;;;;;;;1.73;1.60;;;;;;;11.90;63.05;100378.81;693820;28;3104;-65
2021/05/23 00:52:28;;;;;;;2.42;1.73;;;;;;;11.91;62.85;100382.34;693737;28;22410;-66
2021/05/23 00:52:50;;;;;;;2.20;2.00;;;;;;;11.90;62.93;100380.72;693294;28;21535;-65
2021/05/23 00:53:11;;;;;;;2.10;1.92;;;;;;;11.90;62.84;100383.41;689844;28;40796;-65
2021/05/23 00:53:32;;;;;;;2.25;1.88;;;;;;;11.89;62.98;100381.72;690520;28;37363;-65
2021/05/23 00:53:54;;;;;;;1.95;1.70;;;;;;;11.86;63.08;100374.81;692212;28;2022;-64
2021/05/23 00:54:17;;;;;;;1.65;1.55;;;;;;;11.88;62.89;100382.75;692609;28;1055;-65
2021/05/23 00:54:39;;;;;;;1.80;1.70;;;;;;;11.89;63.09;100387.13;691689;28;36248;-65
2021/05/23 00:55:00;;;;;;;2.35;1.75;;;;;;;11.87;62.99;100386.50;692472;28;34706;-66
2021/05/23 00:55:22;;;;;;;2.53;1.48;;;;;;;11.86;62.92;100388.34;694480;28;1658;-64
2021/05/23 00:55:48;;;;;;;1.70;1.60;;;;;;;11.87;63.19;100391.91;693052;28;58571;-65
2021/05/23 00:56:16;;;;;;;1.77;1.67;;;;;;;11.84;63.36;100389.59;696442;28;1058;-65
2021/05/23 00:56:37;;;;;;;1.73;1.63;;;;;;;11.84;62.97;100386.91;691987;28;158003;-64
2021/05/23 00:56:58;;;;;;;1.90;1.80;;;;;;;11.83;63.23;100386.06;696583;28;23513;-66
2021/05/23 00:57:21;;;;;;;2.33;1.80;;;;;;;11.83;63.39;100391.47;695496;28;46506;-64
2021/05/23 00:57:42;;;;;;;1.48;1.38;;;;;;;11.81;63.27;100385.41;694556;28;45272;-66
2021/05/23 00:58:03;;;;;;;1.73;1.50;;;;;;;11.80;63.14;100386.47;695835;28;23372;-65
2021/05/23 00:58:24;;;;;;;1.63;1.52;;;;;;;11.79;63.55;100392.88;695782;28;46327;-64
2021/05/23 00:58:47;;;;;;;1.73;1.63;;;;;;;11.79;63.37;100386.66;695566;28;22391;-64
2021/05/23 00:59:09;;;;;;;1.90;1.80;;;;;;;11.81;63.06;100388.09;696435;28;30558;-65
2021/05/23 00:59:30;;;;;;;1.88;1.65;;;;;;;11.81;63.26;100387.28;692062;28;46408;-65
2021/05/23 00:59:51;;;;;;;1.60;1.50;;;;;;;11.79;63.21;100389.34;693837;28;22212;-65
2021/05/23 01:01:06;;;;;;;1.70;1.60;;;;;;;11.78;63.08;100393.06;693648;28;24351;-65
2021/05/23 01:02:03;;;;;;;1.70;1.60;;;;;;;11.78;63.30;100391.19;691770;28;137669;-64
2021/05/23 01:02:42;;;;;;;2.05;1.77;;;;;;;11.77;63.12;100392.25;679305;28;156234;-65
2021/05/23 01:03:03;;;;;;;2.08;1.88;;;;;;;11.76;63.43;100390.56;681752;28;137675;-64
2021/05/23 01:03:52;;;;;;;1.60;1.50;;;;;;;11.77;63.21;100396.81;693781;28;22520;-65
2021/05/23 01:04:14;;;;;;;1.58;1.48;;;;;;;11.76;63.44;100397.84;692261;28;63300;-65
2021/05/23 01:04:39;;;;;;;1.70;1.60;;;;;;;11.76;63.33;100397.84;693287;28;46568;-65
2021/05/23 01:05:00;;;;;;;1.90;1.80;;;;;;;11.76;63.25;100403.25;689240;28;132744;-66
2021/05/23 01:05:21;;;;;;;1.83;1.73;;;;;;;11.75;63.17;100397.00;692928;28;23465;-64
2021/05/23 01:05:42;;;;;;;1.75;1.70;;;;;;;11.75;62.94;100397.00;693859;28;22258;-65
2021/05/23 01:06:05;;;;;;;1.90;1.63;;;;;;;11.73;62.97;100391.78;693783;28;21538;-65
2021/05/23 01:06:28;;;;;;;1.80;1.70;;;;;;;11.74;63.31;100395.34;692774;28;47324;-65
2021/05/23 01:06:50;;;;;;;1.77;1.58;;;;;;;11.74;63.45;100395.34;692635;28;69339;-66
2021/05/23 01:07:11;;;;;;;1.58;1.50;;;;;;;11.74;63.37;100403.47;695416;28;45246;-66
2021/05/23 01:07:32;;;;;;;1.50;1.40;;;;;;;11.73;63.07;100399.06;693736;28;22404;-66
2021/05/23 01:07:54;;;;;;;1.52;1.42;;;;;;;11.72;63.40;100400.94;693683;28;22428;-65
2021/05/23 01:08:15;;;;;;;1.70;1.60;;;;;;;11.73;63.10;100399.91;691651;28;44389;-65
2021/05/23 01:08:38;;;;;;;1.50;1.50;;;;;;;11.72;63.42;100400.94;693220;28;23461;-66
2021/05/23 01:08:59;;;;;;;1.80;1.70;;;;;;;11.70;63.10;100400.28;692111;28;68448;-66
2021/05/23 01:09:23;;;;;;;2.38;1.73;;;;;;;11.70;63.17;100404.88;691582;28;13387;-66
2021/05/23 01:09:44;;;;;;;2.50;1.73;;;;;;;11.70;63.14;100402.97;691561;28;92093;-65
2021/05/23 01:10:07;;;;;;;2.53;1.77;;;;;;;11.70;63.12;100402.97;693672;28;23511;-65
2021/05/23 01:10:50;;;;;;;1.70;1.60;;;;;;;11.69;63.59;100400.47;691396;28;92155;-65
2021/05/23 01:12:00;;;;;;;1.70;1.60;;;;;;;11.68;63.16;100399.66;690867;28;137708;-65
2021/05/23 01:13:00;;;;;;;1.73;1.52;;;;;;;11.66;63.53;100399.00;691789;28;137527;-65
2021/05/23 01:13:45;;;;;;;1.63;1.52;;;;;;;11.64;63.79;100401.03;684187;28;138354;-65
2021/05/23 01:14:18;;;;;;;1.60;1.55;;;;;;;11.67;63.41;100405.25;683724;28;137431;-66
2021/05/23 01:14:57;;;;;;;1.70;1.60;;;;;;;11.69;63.64;100403.19;692594;28;136025;-65
2021/05/23 01:15:19;;;;;;;1.85;1.75;;;;;;;11.69;63.39;100409.44;688067;28;137486;-66
2021/05/23 01:15:43;;;;;;;1.80;1.70;;;;;;;11.70;63.49;100405.69;692089;28;45196;-65
2021/05/23 01:16:06;;;;;;;1.73;1.63;;;;;;;11.69;63.29;100401.34;691381;28;92119;-66
2021/05/23 01:16:30;;;;;;;1.80;1.58;;;;;;;11.70;63.53;100408.41;692100;28;69423;-66
2021/05/23 01:16:52;;;;;;;2.13;1.50;;;;;;;11.69;63.30;100403.19;691154;28;92334;-65
2021/05/23 01:17:15;;;;;;;1.92;1.52;;;;;;;11.68;63.33;100405.06;694626;28;46350;-65
2021/05/23 01:17:39;;;;;;;1.60;1.50;;;;;;;11.70;62.99;100407.56;695091;28;70385;-65
2021/05/23 01:18:04;;;;;;;1.60;1.50;;;;;;;11.68;63.20;100402.34;694142;28;92297;-65
2021/05/23 01:18:36;;;;;;;1.63;1.58;;;;;;;11.68;63.54;100404.22;693355;28;113703;-66
2021/05/23 01:19:00;;;;;;;1.77;1.67;;;;;;;11.67;63.36;100405.25;692200;28;136332;-65
2021/05/23 01:19:29;;;;;;;1.80;1.70;;;;;;;11.68;63.10;100402.34;693543;28;92125;-65
2021/05/23 01:20:02;;;;;;;1.63;1.52;;;;;;;11.68;62.98;100401.53;692526;28;137514;-66
2021/05/23 01:20:33;;;;;;;1.85;1.70;;;;;;;11.65;63.05;100405.44;691844;28;137219;-66
2021/05/23 01:20:56;;;;;;;1.60;1.50;;;;;;;11.64;63.29;100401.03;692678;28;134035;-64
2021/05/23 01:21:19;;;;;;;1.48;1.40;;;;;;;11.64;63.12;100403.75;692229;28;65474;-65
2021/05/23 01:21:43;;;;;;;1.58;1.48;;;;;;;11.63;63.22;100407.50;692177;28;69282;-66
2021/05/23 01:22:09;;;;;;;1.60;1.50;;;;;;;11.63;63.26;100401.25;691778;28;67320;-65
2021/05/23 01:22:34;;;;;;;2.00;1.90;;;;;;;11.62;63.37;100403.13;688753;28;156222;-66
2021/05/23 01:23:09;;;;;;;2.25;2.05;;;;;;;11.59;63.38;100405.38;690512;28;115137;-65
2021/05/23 01:23:31;;;;;;;2.38;1.60;;;;;;;11.62;63.74;100407.69;691525;28;160682;-65
2021/05/23 01:23:53;;;;;;;2.28;1.80;;;;;;;11.60;63.42;100407.03;694395;28;68342;-65
2021/05/23 01:24:27;;;;;;;1.65;1.58;;;;;;;11.60;63.53;100405.19;695662;28;45989;-65
2021/05/23 01:24:59;;;;;;;2.00;1.63;;;;;;;11.60;63.46;100398.91;692521;28;136014;-64
2021/05/23 01:25:24;;;;;;;1.90;1.70;;;;;;;11.61;63.49;100406.00;691275;28;135970;-65
2021/05/23 01:25:46;;;;;;;1.58;1.52;;;;;;;11.55;63.55;100399.50;693608;28;115129;-65
2021/05/23 01:26:11;;;;;;;1.45;1.45;;;;;;;11.57;63.46;100410.97;695993;28;44775;-66
2021/05/23 01:26:34;;;;;;;1.60;1.50;;;;;;;11.58;63.58;100406.41;692286;28;109584;-66
2021/05/23 01:26:56;;;;;;;1.77;1.60;;;;;;;11.58;63.56;100406.41;694879;28;69094;-66
2021/05/23 01:27:25;;;;;;;1.75;1.65;;;;;;;11.58;63.40;100409.94;696154;28;22391;-66
2021/05/23 01:27:49;;;;;;;1.67;1.50;;;;;;;11.60;63.63;100409.75;692130;28;137830;-66
2021/05/23 01:28:11;;;;;;;1.77;1.67;;;;;;;11.58;63.38;100407.22;694270;28;93089;-65
2021/05/23 01:28:36;;;;;;;1.60;1.50;;;;;;;11.57;63.55;100408.28;692274;28;44385;-65
2021/05/23 01:28:59;;;;;;;1.80;1.55;;;;;;;11.56;63.45;100406.59;688006;28;92098;-65
2021/05/23 01:29:21;;;;;;;1.52;1.52;;;;;;;11.54;63.91;100412.19;689375;28;55678;-66
2021/05/23 01:29:42;;;;;;;1.42;1.42;;;;;;;11.52;63.88;100413.44;688949;28;69461;-65
2021/05/23 01:30:05;;;;;;;2.65;1.63;;;;;;;11.51;63.59;100407.16;689809;28;21510;-66
2021/05/23 01:30:28;;;;;;;1.75;1.65;;;;;;;11.49;63.65;100411.09;690550;28;67535;-67
2021/05/23 01:30:51;;;;;;;1.70;1.60;;;;;;;11.48;64.10;100407.53;695455;28;21944;-65
2021/05/23 01:31:15;;;;;;;1.70;1.60;;;;;;;11.44;64.07;100411.69;693923;28;90783;-66
2021/05/23 01:31:37;;;;;;;1.70;1.60;;;;;;;11.47;63.76;100407.72;694855;28;68466;-65
2021/05/23 01:31:59;;;;;;;1.70;1.60;;;;;;;11.43;64.29;100409.16;694632;28;67103;-65
2021/05/23 01:32:23;;;;;;;1.70;1.60;;;;;;;11.45;63.98;100420.63;696283;28;13505;-66
2021/05/23 01:32:47;;;;;;;2.28;1.65;;;;;;;11.44;64.10;100417.09;696801;28;12147;-64
2021/05/23 01:33:11;;;;;;;2.40;1.60;;;;;;;11.44;64.12;100406.28;694347;28;35721;-66
2021/05/23 01:33:34;;;;;;;1.70;1.60;;;;;;;11.45;63.92;100407.91;695235;28;13467;-66
2021/05/23 01:33:56;;;;;;;1.60;1.60;;;;;;;11.44;63.97;100416.22;693760;28;44238;-65
2021/05/23 01:34:20;;;;;;;1.98;1.88;;;;;;;11.44;63.95;100406.28;693505;28;70195;-65
2021/05/23 01:34:41;;;;;;;1.50;1.40;;;;;;;11.46;64.34;100414.19;692598;28;90475;-65
2021/05/23 01:35:07;;;;;;;1.67;1.58;;;;;;;11.43;64.22;100410.00;695893;28;22494;-65
2021/05/23 01:35:31;;;;;;;1.55;1.50;;;;;;;11.44;64.60;100416.22;692716;28;129644;-65
2021/05/23 01:35:58;;;;;;;2.42;1.60;;;;;;;11.42;64.35;100413.72;694147;28;93210;-65
2021/05/23 01:36:21;;;;;;;2.03;1.80;;;;;;;11.42;64.13;100416.41;692481;28;138776;-65
2021/05/23 01:36:42;;;;;;;2.47;1.60;;;;;;;11.42;64.32;100412.88;695349;28;63576;-66
2021/05/23 01:37:06;;;;;;;1.70;1.60;;;;;;;11.43;64.27;100418.09;696372;28;22500;-65
2021/05/23 01:37:27;;;;;;;1.50;1.50;;;;;;;11.41;64.04;100412.06;694247;28;92341;-66
2021/05/23 01:37:50;;;;;;;1.73;1.63;;;;;;;11.41;64.51;100414.75;697555;28;1472;-65
2021/05/23 01:38:12;;;;;;;2.40;1.80;;;;;;;11.38;64.24;100414.28;694782;28;69342;-67
2021/05/23 01:38:34;;;;;;;1.70;1.60;;;;;;;11.37;64.69;100416.16;694731;28;63276;-64
2021/05/23 01:38:56;;;;;;;1.83;1.58;;;;;;;11.35;64.57;100416.34;696541;28;14031;-64
2021/05/23 01:39:18;;;;;;;1.70;1.60;;;;;;;11.36;64.76;100422.59;695463;28;46389;-68
2021/05/23 01:39:40;;;;;;;1.63;1.52;;;;;;;11.34;64.61;100411.13;697239;28;893;-66
2021/05/23 01:40:03;;;;;;;1.70;1.60;;;;;;;11.36;64.48;100422.59;693297;28;22468;-65
2021/05/23 01:40:25;;;;;;;1.80;1.70;;;;;;;11.35;64.58;100424.47;691436;28;69468;-62
2021/05/23 01:40:48;;;;;;;1.80;1.70;;;;;;;11.35;64.54;100419.06;692611;28;45272;-64
2021/05/23 01:41:10;;;;;;;1.67;1.67;;;;;;;11.36;64.46;100419.88;692070;28;69702;-64
2021/05/23 01:41:31;;;;;;;1.73;1.63;;;;;;;11.34;64.80;100420.06;691598;28;46292;-64
2021/05/23 01:41:52;;;;;;;1.83;1.67;;;;;;;11.32;64.47;100419.44;694255;28;21473;-63
2021/05/23 01:42:13;;;;;;;1.70;1.60;;;;;;;11.31;64.85;100420.44;695446;28;22413;-64
2021/05/23 01:42:34;;;;;;;1.80;1.70;;;;;;;11.32;64.66;100424.00;696190;28;22480;-64
2021/05/23 01:42:56;;;;;;;1.63;1.60;;;;;;;11.30;64.94;100417.94;696605;28;22492;-65
2021/05/23 01:43:19;;;;;;;1.42;1.40;;;;;;;11.29;64.94;100417.09;695114;28;45266;-64
2021/05/23 01:43:40;;;;;;;1.77;1.67;;;;;;;11.27;64.69;100426.41;694960;28;69241;-64
2021/05/23 01:44:01;;;;;;;1.85;1.65;;;;;;;11.26;65.04;100422.06;697148;28;893;-64
2021/05/23 01:44:22;;;;;;;1.77;1.60;;;;;;;11.27;64.64;100419.16;696411;28;23380;-64
2021/05/23 01:44:44;;;;;;;1.70;1.60;;;;;;;11.27;64.59;100421.00;696667;28;22434;-64
2021/05/23 01:45:06;;;;;;;1.65;1.55;;;;;;;11.25;64.91;100414.97;695890;28;44393;-66
2021/05/23 01:45:28;;;;;;;1.80;1.60;;;;;;;11.24;64.90;100419.53;694685;28;46443;-65
2021/05/23 01:45:49;;;;;;;1.67;1.60;;;;;;;11.23;65.04;100425.97;695712;28;39372;-65
2021/05/23 01:46:11;;;;;;;1.88;1.77;;;;;;;11.24;65.08;100424.09;696564;28;23351;-64
2021/05/23 01:46:33;;;;;;;1.70;1.60;;;;;;;11.24;65.18;100426.81;695533;28;45258;-63
2021/05/23 01:46:54;;;;;;;1.80;1.70;;;;;;;11.22;64.86;100421.59;692758;28;41651;-65
2021/05/23 01:47:15;;;;;;;1.60;1.50;;;;;;;11.21;65.01;100421.78;693710;28;22486;-65
2021/05/23 01:47:36;;;;;;;1.50;1.40;;;;;;;11.19;64.96;100422.00;694328;28;11785;-63
2021/05/23 01:47:58;;;;;;;1.65;1.55;;;;;;;11.17;65.17;100419.47;693715;28;20481;-65
2021/05/23 01:48:19;;;;;;;1.60;1.50;;;;;;;11.16;65.42;100422.38;693163;28;37615;-64
2021/05/23 01:48:40;;;;;;;1.60;1.50;;;;;;;11.13;65.50;100420.88;693532;28;23443;-65
2021/05/23 01:49:02;;;;;;;1.65;1.55;;;;;;;11.13;65.45;100418.16;696567;28;23491;-65
2021/05/23 01:49:23;;;;;;;1.80;1.70;;;;;;;11.14;65.43;100424.41;695319;28;44461;-66
2021/05/23 01:49:45;;;;;;;1.83;1.73;;;;;;;11.14;65.31;100417.16;696699;28;12548;-64
2021/05/23 01:50:06;;;;;;;1.70;1.70;;;;;;;11.11;65.48;100414.81;695730;28;39861;-63
2021/05/23 01:50:28;;;;;;;1.70;1.60;;;;;;;11.13;65.25;100420.03;696357;28;19603;-66